Caryville, Florida
Current Conditions -  °F | °C
As of 9:55 AM on Tuesday 21 Oct 2014 (Local Time) from K54J Reporting Station
Clear Clear  
Wind Chill: 69°   Ceiling: Unl
Heat Index: 69°   Visibility: 10mi
Dew Point: 54°   Wind: 10mph
Humidity: 58%   Direction: 20°NNE
Pressure: 30.05"   Gusts: NA
Location:  30.77°N, 85.81°W
Report Text: K54J 211455Z AUTO 02009KT 10SM CLR 21/12 A3005 RMK AO2 T02060121
Loading
Personal Weather Stations






























Interactive Weather Map
Tropical Storm Tracking
New forecast layout! Learn more

10-Day Weather Forecast

Advertisements
Track Severe Weather on mobile